sensor_id;sensor_type;location;lat;lon;timestamp;P1;durP1;ratioP1;P2;durP2;ratioP2
41446;SDS011;27185;52.040;4.490;2023-02-02T00:01:01;20.95;;;2.47;;
41446;SDS011;27185;52.040;4.490;2023-02-02T00:03:53;30.90;;;3.13;;
41446;SDS011;27185;52.040;4.490;2023-02-02T00:06:39;25.00;;;3.22;;
41446;SDS011;27185;52.040;4.490;2023-02-02T00:09:26;27.10;;;3.95;;
41446;SDS011;27185;52.040;4.490;2023-02-02T00:12:13;23.75;;;4.40;;
41446;SDS011;27185;52.040;4.490;2023-02-02T00:14:59;19.15;;;2.85;;
41446;SDS011;27185;52.040;4.490;2023-02-02T00:17:44;34.20;;;4.05;;
41446;SDS011;27185;52.040;4.490;2023-02-02T00:20:30;22.48;;;3.55;;
41446;SDS011;27185;52.040;4.490;2023-02-02T00:23:18;22.27;;;3.47;;
41446;SDS011;27185;52.040;4.490;2023-02-02T00:26:04;26.50;;;3.78;;
41446;SDS011;27185;52.040;4.490;2023-02-02T00:28:49;22.88;;;3.92;;
41446;SDS011;27185;52.040;4.490;2023-02-02T00:31:35;28.80;;;3.63;;
41446;SDS011;27185;52.040;4.490;2023-02-02T00:34:20;24.88;;;4.22;;
41446;SDS011;27185;52.040;4.490;2023-02-02T00:37:07;17.52;;;3.17;;
41446;SDS011;27185;52.040;4.490;2023-02-02T00:39:52;21.92;;;3.42;;
41446;SDS011;27185;52.040;4.490;2023-02-02T00:42:38;19.95;;;3.17;;
41446;SDS011;27185;52.040;4.490;2023-02-02T00:45:23;19.85;;;3.17;;
41446;SDS011;27185;52.040;4.490;2023-02-02T00:48:10;22.80;;;3.72;;
41446;SDS011;27185;52.040;4.490;2023-02-02T00:50:56;21.80;;;3.15;;
41446;SDS011;27185;52.040;4.490;2023-02-02T00:53:41;22.70;;;4.00;;
41446;SDS011;27185;52.040;4.490;2023-02-02T00:56:27;22.10;;;3.05;;
41446;SDS011;27185;52.040;4.490;2023-02-02T00:59:13;25.67;;;4.45;;
41446;SDS011;27185;52.040;4.490;2023-02-02T01:01:58;28.13;;;4.15;;
41446;SDS011;27185;52.040;4.490;2023-02-02T01:04:45;23.47;;;3.23;;
41446;SDS011;27185;52.040;4.490;2023-02-02T01:07:31;16.67;;;2.95;;
41446;SDS011;27185;52.040;4.490;2023-02-02T01:10:17;18.70;;;3.25;;
41446;SDS011;27185;52.040;4.490;2023-02-02T01:13:03;22.02;;;3.45;;
41446;SDS011;27185;52.040;4.490;2023-02-02T01:15:53;25.88;;;3.17;;
41446;SDS011;27185;52.040;4.490;2023-02-02T01:18:40;13.50;;;2.35;;
41446;SDS011;27185;52.040;4.490;2023-02-02T01:21:25;15.63;;;2.72;;
41446;SDS011;27185;52.040;4.490;2023-02-02T01:24:11;15.57;;;2.42;;
41446;SDS011;27185;52.040;4.490;2023-02-02T01:26:56;14.90;;;3.13;;
41446;SDS011;27185;52.040;4.490;2023-02-02T01:29:42;21.50;;;3.33;;
41446;SDS011;27185;52.040;4.490;2023-02-02T01:32:28;19.00;;;3.58;;
41446;SDS011;27185;52.040;4.490;2023-02-02T01:35:14;19.83;;;4.18;;
41446;SDS011;27185;52.040;4.490;2023-02-02T01:37:59;30.90;;;4.32;;
41446;SDS011;27185;52.040;4.490;2023-02-02T01:40:45;20.42;;;3.58;;
41446;SDS011;27185;52.040;4.490;2023-02-02T01:46:35;24.48;;;3.35;;
41446;SDS011;27185;52.040;4.490;2023-02-02T01:49:21;22.73;;;3.30;;
41446;SDS011;27185;52.040;4.490;2023-02-02T01:52:07;25.23;;;3.55;;
41446;SDS011;27185;52.040;4.490;2023-02-02T01:55:01;27.17;;;4.30;;
41446;SDS011;27185;52.040;4.490;2023-02-02T02:00:43;29.20;;;4.18;;
41446;SDS011;27185;52.040;4.490;2023-02-02T02:03:30;26.83;;;3.83;;
41446;SDS011;27185;52.040;4.490;2023-02-02T02:06:18;30.27;;;3.78;;
41446;SDS011;27185;52.040;4.490;2023-02-02T02:09:05;19.63;;;3.08;;
41446;SDS011;27185;52.040;4.490;2023-02-02T02:11:52;21.98;;;3.05;;
41446;SDS011;27185;52.040;4.490;2023-02-02T02:14:38;21.45;;;3.75;;
41446;SDS011;27185;52.040;4.490;2023-02-02T02:17:47;20.10;;;2.95;;
41446;SDS011;27185;52.040;4.490;2023-02-02T02:21:08;24.93;;;4.20;;
41446;SDS011;27185;52.040;4.490;2023-02-02T02:34:10;18.90;;;2.38;;
41446;SDS011;27185;52.040;4.490;2023-02-02T02:40:40;24.30;;;4.45;;
41446;SDS011;27185;52.040;4.490;2023-02-02T02:43:36;24.15;;;4.45;;
41446;SDS011;27185;52.040;4.490;2023-02-02T02:46:25;17.90;;;3.22;;
41446;SDS011;27185;52.040;4.490;2023-02-02T02:49:12;25.20;;;3.63;;
41446;SDS011;27185;52.040;4.490;2023-02-02T02:51:58;18.13;;;2.53;;
41446;SDS011;27185;52.040;4.490;2023-02-02T02:54:45;21.73;;;3.83;;
41446;SDS011;27185;52.040;4.490;2023-02-02T03:00:52;26.02;;;3.13;;
41446;SDS011;27185;52.040;4.490;2023-02-02T03:03:48;14.52;;;2.47;;
41446;SDS011;27185;52.040;4.490;2023-02-02T03:06:50;21.35;;;3.28;;
41446;SDS011;27185;52.040;4.490;2023-02-02T03:09:37;18.05;;;3.03;;
41446;SDS011;27185;52.040;4.490;2023-02-02T03:12:25;24.15;;;4.32;;
41446;SDS011;27185;52.040;4.490;2023-02-02T03:15:11;21.70;;;3.05;;
41446;SDS011;27185;52.040;4.490;2023-02-02T03:17:58;15.93;;;3.50;;
41446;SDS011;27185;52.040;4.490;2023-02-02T03:20:44;29.63;;;3.90;;
41446;SDS011;27185;52.040;4.490;2023-02-02T03:23:30;29.55;;;3.78;;
41446;SDS011;27185;52.040;4.490;2023-02-02T03:26:16;20.13;;;2.83;;
41446;SDS011;27185;52.040;4.490;2023-02-02T03:29:01;18.55;;;2.58;;
41446;SDS011;27185;52.040;4.490;2023-02-02T03:31:48;16.02;;;3.10;;
41446;SDS011;27185;52.040;4.490;2023-02-02T03:34:34;19.05;;;2.42;;
41446;SDS011;27185;52.040;4.490;2023-02-02T03:37:19;16.83;;;2.75;;
41446;SDS011;27185;52.040;4.490;2023-02-02T03:40:05;14.48;;;3.03;;
41446;SDS011;27185;52.040;4.490;2023-02-02T03:42:51;17.48;;;3.15;;
41446;SDS011;27185;52.040;4.490;2023-02-02T03:45:36;20.17;;;2.90;;
41446;SDS011;27185;52.040;4.490;2023-02-02T03:48:24;21.40;;;3.03;;
41446;SDS011;27185;52.040;4.490;2023-02-02T03:51:11;22.73;;;2.70;;
41446;SDS011;27185;52.040;4.490;2023-02-02T03:53:58;23.00;;;3.25;;
41446;SDS011;27185;52.040;4.490;2023-02-02T03:56:44;17.10;;;2.45;;
41446;SDS011;27185;52.040;4.490;2023-02-02T03:59:29;24.25;;;3.20;;
41446;SDS011;27185;52.040;4.490;2023-02-02T04:02:15;12.20;;;2.08;;
41446;SDS011;27185;52.040;4.490;2023-02-02T04:05:00;18.38;;;2.65;;
41446;SDS011;27185;52.040;4.490;2023-02-02T04:07:46;20.77;;;3.00;;
41446;SDS011;27185;52.040;4.490;2023-02-02T04:10:33;15.65;;;2.47;;
41446;SDS011;27185;52.040;4.490;2023-02-02T04:13:18;25.85;;;2.90;;
41446;SDS011;27185;52.040;4.490;2023-02-02T04:16:04;18.60;;;3.28;;
41446;SDS011;27185;52.040;4.490;2023-02-02T04:18:50;18.13;;;2.90;;
41446;SDS011;27185;52.040;4.490;2023-02-02T04:21:35;20.50;;;2.78;;
41446;SDS011;27185;52.040;4.490;2023-02-02T04:24:21;20.65;;;3.35;;
41446;SDS011;27185;52.040;4.490;2023-02-02T04:27:07;23.85;;;3.25;;
41446;SDS011;27185;52.040;4.490;2023-02-02T04:29:52;14.00;;;2.55;;
41446;SDS011;27185;52.040;4.490;2023-02-02T04:32:38;17.77;;;2.90;;
41446;SDS011;27185;52.040;4.490;2023-02-02T04:35:23;14.13;;;2.72;;
41446;SDS011;27185;52.040;4.490;2023-02-02T04:38:09;24.98;;;2.92;;
41446;SDS011;27185;52.040;4.490;2023-02-02T04:40:55;21.17;;;4.00;;
41446;SDS011;27185;52.040;4.490;2023-02-02T04:43:40;18.63;;;3.28;;
41446;SDS011;27185;52.040;4.490;2023-02-02T04:46:26;21.27;;;3.00;;
41446;SDS011;27185;52.040;4.490;2023-02-02T04:49:12;18.90;;;2.92;;
41446;SDS011;27185;52.040;4.490;2023-02-02T04:51:58;18.75;;;2.30;;
41446;SDS011;27185;52.040;4.490;2023-02-02T04:54:43;13.43;;;2.67;;
41446;SDS011;27185;52.040;4.490;2023-02-02T04:57:29;14.45;;;2.83;;
41446;SDS011;27185;52.040;4.490;2023-02-02T05:00:14;19.85;;;3.15;;
41446;SDS011;27185;52.040;4.490;2023-02-02T05:03:01;16.98;;;2.65;;
41446;SDS011;27185;52.040;4.490;2023-02-02T05:05:46;14.93;;;2.15;;
41446;SDS011;27185;52.040;4.490;2023-02-02T05:08:32;15.15;;;2.38;;
41446;SDS011;27185;52.040;4.490;2023-02-02T05:11:20;17.38;;;3.25;;
41446;SDS011;27185;52.040;4.490;2023-02-02T05:16:52;15.35;;;1.95;;
41446;SDS011;27185;52.040;4.490;2023-02-02T05:19:38;18.23;;;2.60;;
41446;SDS011;27185;52.040;4.490;2023-02-02T05:22:23;21.40;;;3.35;;
41446;SDS011;27185;52.040;4.490;2023-02-02T05:25:09;13.23;;;2.33;;
41446;SDS011;27185;52.040;4.490;2023-02-02T05:27:55;16.80;;;2.30;;
41446;SDS011;27185;52.040;4.490;2023-02-02T05:30:40;15.05;;;2.65;;
41446;SDS011;27185;52.040;4.490;2023-02-02T05:33:26;17.75;;;2.10;;
41446;SDS011;27185;52.040;4.490;2023-02-02T05:36:11;16.83;;;3.17;;
41446;SDS011;27185;52.040;4.490;2023-02-02T05:38:57;17.55;;;2.70;;
41446;SDS011;27185;52.040;4.490;2023-02-02T05:41:44;16.52;;;2.40;;
41446;SDS011;27185;52.040;4.490;2023-02-02T05:44:29;16.63;;;2.83;;
41446;SDS011;27185;52.040;4.490;2023-02-02T05:47:15;13.02;;;2.40;;
41446;SDS011;27185;52.040;4.490;2023-02-02T05:50:01;20.63;;;3.30;;
41446;SDS011;27185;52.040;4.490;2023-02-02T05:52:47;15.40;;;2.53;;
41446;SDS011;27185;52.040;4.490;2023-02-02T05:55:33;31.38;;;3.65;;
41446;SDS011;27185;52.040;4.490;2023-02-02T05:58:18;22.75;;;3.00;;
41446;SDS011;27185;52.040;4.490;2023-02-02T06:01:04;19.42;;;2.95;;
41446;SDS011;27185;52.040;4.490;2023-02-02T06:03:50;17.95;;;3.13;;
41446;SDS011;27185;52.040;4.490;2023-02-02T06:06:35;15.77;;;2.17;;
41446;SDS011;27185;52.040;4.490;2023-02-02T06:09:23;17.10;;;2.20;;
41446;SDS011;27185;52.040;4.490;2023-02-02T06:12:09;21.33;;;3.78;;
41446;SDS011;27185;52.040;4.490;2023-02-02T06:14:54;17.73;;;3.05;;
41446;SDS011;27185;52.040;4.490;2023-02-02T06:17:40;19.85;;;2.90;;
41446;SDS011;27185;52.040;4.490;2023-02-02T06:20:27;16.58;;;3.13;;
41446;SDS011;27185;52.040;4.490;2023-02-02T06:23:13;26.65;;;3.78;;
41446;SDS011;27185;52.040;4.490;2023-02-02T06:25:59;21.98;;;2.72;;
41446;SDS011;27185;52.040;4.490;2023-02-02T06:28:49;18.35;;;3.17;;
41446;SDS011;27185;52.040;4.490;2023-02-02T06:31:36;14.80;;;2.58;;
41446;SDS011;27185;52.040;4.490;2023-02-02T06:34:21;18.70;;;2.85;;
41446;SDS011;27185;52.040;4.490;2023-02-02T06:37:07;24.48;;;2.47;;
41446;SDS011;27185;52.040;4.490;2023-02-02T06:39:52;14.88;;;3.05;;
41446;SDS011;27185;52.040;4.490;2023-02-02T06:42:38;18.70;;;3.08;;
41446;SDS011;27185;52.040;4.490;2023-02-02T06:45:24;14.43;;;2.60;;
41446;SDS011;27185;52.040;4.490;2023-02-02T06:48:11;19.35;;;3.28;;
41446;SDS011;27185;52.040;4.490;2023-02-02T06:50:58;20.00;;;3.33;;
41446;SDS011;27185;52.040;4.490;2023-02-02T06:53:45;16.33;;;2.58;;
41446;SDS011;27185;52.040;4.490;2023-02-02T06:56:33;20.27;;;3.30;;
41446;SDS011;27185;52.040;4.490;2023-02-02T06:59:18;12.73;;;2.10;;
41446;SDS011;27185;52.040;4.490;2023-02-02T07:02:04;19.67;;;2.80;;
41446;SDS011;27185;52.040;4.490;2023-02-02T07:04:53;20.67;;;2.75;;
41446;SDS011;27185;52.040;4.490;2023-02-02T07:07:39;11.68;;;2.47;;
41446;SDS011;27185;52.040;4.490;2023-02-02T07:10:24;18.42;;;2.83;;
41446;SDS011;27185;52.040;4.490;2023-02-02T07:13:10;20.05;;;2.80;;
41446;SDS011;27185;52.040;4.490;2023-02-02T07:15:55;17.80;;;3.67;;
41446;SDS011;27185;52.040;4.490;2023-02-02T07:18:42;16.33;;;2.05;;
41446;SDS011;27185;52.040;4.490;2023-02-02T07:21:28;20.33;;;2.90;;
41446;SDS011;27185;52.040;4.490;2023-02-02T07:24:19;20.38;;;2.88;;
41446;SDS011;27185;52.040;4.490;2023-02-02T07:27:04;17.60;;;2.75;;
41446;SDS011;27185;52.040;4.490;2023-02-02T07:29:50;15.02;;;2.00;;
41446;SDS011;27185;52.040;4.490;2023-02-02T07:32:36;13.95;;;2.30;;
41446;SDS011;27185;52.040;4.490;2023-02-02T07:35:22;17.42;;;2.65;;
41446;SDS011;27185;52.040;4.490;2023-02-02T07:38:08;15.75;;;2.72;;
41446;SDS011;27185;52.040;4.490;2023-02-02T07:40:53;22.25;;;2.58;;
41446;SDS011;27185;52.040;4.490;2023-02-02T07:43:39;21.63;;;2.95;;
41446;SDS011;27185;52.040;4.490;2023-02-02T07:46:25;21.35;;;3.30;;
41446;SDS011;27185;52.040;4.490;2023-02-02T07:49:15;27.58;;;3.67;;
41446;SDS011;27185;52.040;4.490;2023-02-02T07:52:02;17.08;;;2.47;;
41446;SDS011;27185;52.040;4.490;2023-02-02T07:54:48;15.30;;;2.78;;
41446;SDS011;27185;52.040;4.490;2023-02-02T07:57:33;14.10;;;2.72;;
41446;SDS011;27185;52.040;4.490;2023-02-02T08:00:19;22.23;;;3.22;;
41446;SDS011;27185;52.040;4.490;2023-02-02T08:03:05;21.60;;;2.75;;
41446;SDS011;27185;52.040;4.490;2023-02-02T08:05:50;12.43;;;2.13;;
41446;SDS011;27185;52.040;4.490;2023-02-02T08:08:36;18.33;;;2.67;;
41446;SDS011;27185;52.040;4.490;2023-02-02T08:11:23;14.07;;;1.80;;
41446;SDS011;27185;52.040;4.490;2023-02-02T08:14:11;21.10;;;3.28;;
41446;SDS011;27185;52.040;4.490;2023-02-02T08:16:57;15.57;;;2.42;;
41446;SDS011;27185;52.040;4.490;2023-02-02T08:19:43;15.45;;;2.42;;
41446;SDS011;27185;52.040;4.490;2023-02-02T08:22:29;15.60;;;2.40;;
41446;SDS011;27185;52.040;4.490;2023-02-02T08:25:15;12.80;;;2.05;;
41446;SDS011;27185;52.040;4.490;2023-02-02T08:28:01;15.35;;;2.60;;
41446;SDS011;27185;52.040;4.490;2023-02-02T08:30:46;14.75;;;2.53;;
41446;SDS011;27185;52.040;4.490;2023-02-02T08:33:32;18.40;;;2.53;;
41446;SDS011;27185;52.040;4.490;2023-02-02T08:36:18;19.55;;;2.33;;
41446;SDS011;27185;52.040;4.490;2023-02-02T08:39:06;14.68;;;1.85;;
41446;SDS011;27185;52.040;4.490;2023-02-02T08:41:54;15.82;;;3.35;;
41446;SDS011;27185;52.040;4.490;2023-02-02T08:44:40;23.70;;;2.10;;
41446;SDS011;27185;52.040;4.490;2023-02-02T08:47:28;16.67;;;3.05;;
41446;SDS011;27185;52.040;4.490;2023-02-02T08:50:14;16.52;;;2.33;;
41446;SDS011;27185;52.040;4.490;2023-02-02T08:53:00;17.92;;;2.67;;
41446;SDS011;27185;52.040;4.490;2023-02-02T08:55:46;15.65;;;2.90;;
41446;SDS011;27185;52.040;4.490;2023-02-02T08:58:32;13.35;;;1.98;;
41446;SDS011;27185;52.040;4.490;2023-02-02T09:01:19;15.98;;;2.25;;
41446;SDS011;27185;52.040;4.490;2023-02-02T09:04:12;17.70;;;2.63;;
41446;SDS011;27185;52.040;4.490;2023-02-02T09:07:00;16.75;;;2.38;;
41446;SDS011;27185;52.040;4.490;2023-02-02T09:09:46;15.23;;;2.22;;
41446;SDS011;27185;52.040;4.490;2023-02-02T09:12:31;10.82;;;2.03;;
41446;SDS011;27185;52.040;4.490;2023-02-02T09:15:17;13.30;;;1.77;;
41446;SDS011;27185;52.040;4.490;2023-02-02T09:18:02;14.70;;;1.98;;
41446;SDS011;27185;52.040;4.490;2023-02-02T09:20:48;18.50;;;2.30;;
41446;SDS011;27185;52.040;4.490;2023-02-02T09:23:35;15.95;;;2.55;;
41446;SDS011;27185;52.040;4.490;2023-02-02T09:26:23;13.65;;;2.15;;
41446;SDS011;27185;52.040;4.490;2023-02-02T09:29:11;11.18;;;2.20;;
41446;SDS011;27185;52.040;4.490;2023-02-02T09:31:58;13.57;;;2.22;;
41446;SDS011;27185;52.040;4.490;2023-02-02T09:34:44;15.25;;;2.72;;
41446;SDS011;27185;52.040;4.490;2023-02-02T09:37:32;10.77;;;1.67;;
41446;SDS011;27185;52.040;4.490;2023-02-02T09:40:18;16.42;;;2.13;;
41446;SDS011;27185;52.040;4.490;2023-02-02T09:43:27;9.00;;;1.65;;
41446;SDS011;27185;52.040;4.490;2023-02-02T09:55:35;19.27;;;2.10;;
41446;SDS011;27185;52.040;4.490;2023-02-02T10:01:17;14.45;;;1.98;;
41446;SDS011;27185;52.040;4.490;2023-02-02T10:04:15;13.55;;;1.10;;
41446;SDS011;27185;52.040;4.490;2023-02-02T10:07:10;11.75;;;1.90;;
41446;SDS011;27185;52.040;4.490;2023-02-02T10:10:09;11.60;;;1.70;;
41446;SDS011;27185;52.040;4.490;2023-02-02T10:16:18;7.85;;;1.27;;
41446;SDS011;27185;52.040;4.490;2023-02-02T10:19:10;15.73;;;1.42;;
41446;SDS011;27185;52.040;4.490;2023-02-02T10:22:04;13.63;;;1.58;;
41446;SDS011;27185;52.040;4.490;2023-02-02T10:24:56;10.90;;;1.77;;
41446;SDS011;27185;52.040;4.490;2023-02-02T10:27:45;15.63;;;2.00;;
41446;SDS011;27185;52.040;4.490;2023-02-02T10:30:53;11.65;;;1.52;;
41446;SDS011;27185;52.040;4.490;2023-02-02T10:39:47;15.07;;;1.67;;
41446;SDS011;27185;52.040;4.490;2023-02-02T10:45:55;10.88;;;1.20;;
41446;SDS011;27185;52.040;4.490;2023-02-02T10:48:43;13.13;;;1.98;;
41446;SDS011;27185;52.040;4.490;2023-02-02T10:51:30;15.18;;;1.75;;
41446;SDS011;27185;52.040;4.490;2023-02-02T10:54:24;9.52;;;1.73;;
41446;SDS011;27185;52.040;4.490;2023-02-02T10:57:32;8.80;;;1.80;;
41446;SDS011;27185;52.040;4.490;2023-02-02T11:00:30;14.25;;;1.90;;
41446;SDS011;27185;52.040;4.490;2023-02-02T11:03:32;15.80;;;2.30;;
41446;SDS011;27185;52.040;4.490;2023-02-02T11:06:18;13.02;;;1.35;;
41446;SDS011;27185;52.040;4.490;2023-02-02T11:09:23;11.52;;;1.48;;
41446;SDS011;27185;52.040;4.490;2023-02-02T11:15:24;19.70;;;2.15;;
41446;SDS011;27185;52.040;4.490;2023-02-02T11:18:26;14.60;;;1.85;;
41446;SDS011;27185;52.040;4.490;2023-02-02T11:21:26;15.68;;;1.70;;
41446;SDS011;27185;52.040;4.490;2023-02-02T11:24:26;19.92;;;2.70;;
41446;SDS011;27185;52.040;4.490;2023-02-02T11:27:39;9.65;;;1.67;;
41446;SDS011;27185;52.040;4.490;2023-02-02T11:30:29;12.30;;;2.00;;
41446;SDS011;27185;52.040;4.490;2023-02-02T11:36:20;13.32;;;2.08;;
41446;SDS011;27185;52.040;4.490;2023-02-02T11:39:15;14.55;;;2.35;;
41446;SDS011;27185;52.040;4.490;2023-02-02T11:45:01;13.32;;;1.73;;
41446;SDS011;27185;52.040;4.490;2023-02-02T11:47:48;17.15;;;2.65;;
41446;SDS011;27185;52.040;4.490;2023-02-02T11:50:35;15.98;;;1.83;;
41446;SDS011;27185;52.040;4.490;2023-02-02T11:53:21;17.88;;;2.10;;
41446;SDS011;27185;52.040;4.490;2023-02-02T11:56:26;13.35;;;2.40;;
41446;SDS011;27185;52.040;4.490;2023-02-02T11:59:29;17.27;;;2.55;;
41446;SDS011;27185;52.040;4.490;2023-02-02T12:02:28;18.27;;;2.30;;
41446;SDS011;27185;52.040;4.490;2023-02-02T12:08:03;15.20;;;1.92;;
41446;SDS011;27185;52.040;4.490;2023-02-02T12:11:01;17.23;;;2.10;;
41446;SDS011;27185;52.040;4.490;2023-02-02T12:14:12;12.20;;;1.88;;
41446;SDS011;27185;52.040;4.490;2023-02-02T12:17:07;17.35;;;2.28;;
41446;SDS011;27185;52.040;4.490;2023-02-02T12:26:33;20.45;;;2.70;;
41446;SDS011;27185;52.040;4.490;2023-02-02T12:29:25;15.32;;;2.03;;
41446;SDS011;27185;52.040;4.490;2023-02-02T12:41:16;10.70;;;1.58;;
41446;SDS011;27185;52.040;4.490;2023-02-02T12:44:48;20.00;;;2.15;;
41446;SDS011;27185;52.040;4.490;2023-02-02T12:54:12;11.15;;;1.00;;
41446;SDS011;27185;52.040;4.490;2023-02-02T12:57:27;8.32;;;1.42;;
41446;SDS011;27185;52.040;4.490;2023-02-02T13:00:22;13.95;;;2.53;;
41446;SDS011;27185;52.040;4.490;2023-02-02T13:09:32;9.27;;;1.52;;
41446;SDS011;27185;52.040;4.490;2023-02-02T13:12:29;6.82;;;0.90;;
41446;SDS011;27185;52.040;4.490;2023-02-02T13:15:22;10.27;;;1.25;;
41446;SDS011;27185;52.040;4.490;2023-02-02T13:18:14;7.95;;;1.02;;
41446;SDS011;27185;52.040;4.490;2023-02-02T13:21:13;6.68;;;0.90;;
41446;SDS011;27185;52.040;4.490;2023-02-02T13:24:02;8.30;;;1.33;;
41446;SDS011;27185;52.040;4.490;2023-02-02T13:26:50;7.30;;;1.38;;
41446;SDS011;27185;52.040;4.490;2023-02-02T13:29:41;7.85;;;1.17;;
41446;SDS011;27185;52.040;4.490;2023-02-02T13:32:38;7.25;;;1.33;;
41446;SDS011;27185;52.040;4.490;2023-02-02T13:35:36;5.50;;;1.10;;
41446;SDS011;27185;52.040;4.490;2023-02-02T13:38:30;8.23;;;1.80;;
41446;SDS011;27185;52.040;4.490;2023-02-02T13:41:18;5.38;;;1.00;;
41446;SDS011;27185;52.040;4.490;2023-02-02T13:44:08;8.23;;;1.42;;
41446;SDS011;27185;52.040;4.490;2023-02-02T13:47:10;5.57;;;1.50;;
41446;SDS011;27185;52.040;4.490;2023-02-02T13:50:18;6.85;;;1.52;;
41446;SDS011;27185;52.040;4.490;2023-02-02T13:53:22;6.80;;;1.95;;
41446;SDS011;27185;52.040;4.490;2023-02-02T13:56:34;10.95;;;2.58;;
41446;SDS011;27185;52.040;4.490;2023-02-02T14:02:43;12.45;;;2.17;;
41446;SDS011;27185;52.040;4.490;2023-02-02T14:08:22;13.70;;;2.83;;
41446;SDS011;27185;52.040;4.490;2023-02-02T14:11:13;16.42;;;2.25;;
41446;SDS011;27185;52.040;4.490;2023-02-02T14:14:21;14.43;;;3.42;;
41446;SDS011;27185;52.040;4.490;2023-02-02T14:38:03;17.65;;;3.45;;
41446;SDS011;27185;52.040;4.490;2023-02-02T14:40:55;18.95;;;3.28;;
41446;SDS011;27185;52.040;4.490;2023-02-02T14:43:54;23.77;;;3.40;;
41446;SDS011;27185;52.040;4.490;2023-02-02T14:46:47;19.55;;;2.58;;
41446;SDS011;27185;52.040;4.490;2023-02-02T14:49:33;16.27;;;3.10;;
41446;SDS011;27185;52.040;4.490;2023-02-02T14:52:19;21.60;;;3.75;;
41446;SDS011;27185;52.040;4.490;2023-02-02T14:55:17;27.70;;;4.22;;
41446;SDS011;27185;52.040;4.490;2023-02-02T14:58:03;21.08;;;3.03;;
41446;SDS011;27185;52.040;4.490;2023-02-02T15:00:56;25.92;;;3.67;;
41446;SDS011;27185;52.040;4.490;2023-02-02T15:06:44;21.42;;;3.42;;
41446;SDS011;27185;52.040;4.490;2023-02-02T15:09:37;19.77;;;3.42;;
41446;SDS011;27185;52.040;4.490;2023-02-02T15:12:28;20.10;;;3.28;;
41446;SDS011;27185;52.040;4.490;2023-02-02T15:15:19;18.08;;;3.40;;
41446;SDS011;27185;52.040;4.490;2023-02-02T15:18:14;22.65;;;2.90;;
41446;SDS011;27185;52.040;4.490;2023-02-02T15:21:05;15.18;;;2.60;;
41446;SDS011;27185;52.040;4.490;2023-02-02T15:23:52;13.50;;;2.88;;
41446;SDS011;27185;52.040;4.490;2023-02-02T15:26:39;19.75;;;3.20;;
41446;SDS011;27185;52.040;4.490;2023-02-02T15:29:39;17.35;;;3.25;;
41446;SDS011;27185;52.040;4.490;2023-02-02T15:32:29;18.15;;;4.10;;
41446;SDS011;27185;52.040;4.490;2023-02-02T15:35:20;20.50;;;3.08;;
41446;SDS011;27185;52.040;4.490;2023-02-02T15:38:15;21.90;;;4.32;;
41446;SDS011;27185;52.040;4.490;2023-02-02T15:41:05;15.68;;;2.38;;
41446;SDS011;27185;52.040;4.490;2023-02-02T15:43:58;9.77;;;2.70;;
41446;SDS011;27185;52.040;4.490;2023-02-02T15:46:44;15.13;;;2.63;;
41446;SDS011;27185;52.040;4.490;2023-02-02T15:49:31;14.80;;;2.75;;
41446;SDS011;27185;52.040;4.490;2023-02-02T15:52:21;10.60;;;2.67;;
41446;SDS011;27185;52.040;4.490;2023-02-02T15:55:17;11.65;;;2.80;;
41446;SDS011;27185;52.040;4.490;2023-02-02T16:01:19;13.77;;;3.25;;
41446;SDS011;27185;52.040;4.490;2023-02-02T16:04:20;11.77;;;2.97;;
41446;SDS011;27185;52.040;4.490;2023-02-02T16:07:17;10.65;;;2.20;;
41446;SDS011;27185;52.040;4.490;2023-02-02T16:10:06;11.27;;;2.50;;
41446;SDS011;27185;52.040;4.490;2023-02-02T16:12:52;12.38;;;3.13;;
41446;SDS011;27185;52.040;4.490;2023-02-02T16:15:39;14.52;;;2.17;;
41446;SDS011;27185;52.040;4.490;2023-02-02T16:18:24;9.85;;;2.60;;
41446;SDS011;27185;52.040;4.490;2023-02-02T16:21:16;12.32;;;2.92;;
41446;SDS011;27185;52.040;4.490;2023-02-02T16:24:11;9.35;;;2.30;;
41446;SDS011;27185;52.040;4.490;2023-02-02T16:27:03;10.63;;;2.13;;
41446;SDS011;27185;52.040;4.490;2023-02-02T16:29:51;15.98;;;2.15;;
41446;SDS011;27185;52.040;4.490;2023-02-02T16:32:37;10.85;;;2.22;;
41446;SDS011;27185;52.040;4.490;2023-02-02T16:35:36;14.10;;;2.25;;
41446;SDS011;27185;52.040;4.490;2023-02-02T16:38:33;6.75;;;1.48;;
41446;SDS011;27185;52.040;4.490;2023-02-02T16:44:36;12.65;;;2.25;;
41446;SDS011;27185;52.040;4.490;2023-02-02T16:50:17;7.15;;;1.70;;
41446;SDS011;27185;52.040;4.490;2023-02-02T16:53:10;8.85;;;2.00;;
41446;SDS011;27185;52.040;4.490;2023-02-02T16:56:06;11.50;;;2.38;;
41446;SDS011;27185;52.040;4.490;2023-02-02T16:58:53;10.55;;;2.30;;
41446;SDS011;27185;52.040;4.490;2023-02-02T17:01:43;12.02;;;3.33;;
41446;SDS011;27185;52.040;4.490;2023-02-02T17:04:33;10.20;;;2.08;;
41446;SDS011;27185;52.040;4.490;2023-02-02T17:07:19;8.98;;;2.33;;
41446;SDS011;27185;52.040;4.490;2023-02-02T17:13:01;6.82;;;1.90;;
41446;SDS011;27185;52.040;4.490;2023-02-02T17:16:09;13.15;;;2.17;;
41446;SDS011;27185;52.040;4.490;2023-02-02T17:18:57;7.22;;;1.50;;
41446;SDS011;27185;52.040;4.490;2023-02-02T17:21:42;7.03;;;1.83;;
41446;SDS011;27185;52.040;4.490;2023-02-02T17:24:28;11.60;;;1.77;;
41446;SDS011;27185;52.040;4.490;2023-02-02T17:27:15;12.68;;;1.60;;
41446;SDS011;27185;52.040;4.490;2023-02-02T17:30:06;11.50;;;2.00;;
41446;SDS011;27185;52.040;4.490;2023-02-02T17:32:58;6.75;;;1.63;;
41446;SDS011;27185;52.040;4.490;2023-02-02T17:35:44;10.20;;;2.10;;
41446;SDS011;27185;52.040;4.490;2023-02-02T17:38:30;12.25;;;2.83;;
41446;SDS011;27185;52.040;4.490;2023-02-02T17:41:16;11.40;;;2.10;;
41446;SDS011;27185;52.040;4.490;2023-02-02T17:44:02;8.50;;;1.55;;
41446;SDS011;27185;52.040;4.490;2023-02-02T17:46:49;14.73;;;2.15;;
41446;SDS011;27185;52.040;4.490;2023-02-02T17:49:35;6.82;;;2.00;;
41446;SDS011;27185;52.040;4.490;2023-02-02T17:52:20;11.65;;;2.33;;
41446;SDS011;27185;52.040;4.490;2023-02-02T17:55:10;17.27;;;1.90;;
41446;SDS011;27185;52.040;4.490;2023-02-02T17:57:58;11.45;;;2.30;;
41446;SDS011;27185;52.040;4.490;2023-02-02T18:00:44;6.53;;;2.03;;
41446;SDS011;27185;52.040;4.490;2023-02-02T18:03:32;11.82;;;2.13;;
41446;SDS011;27185;52.040;4.490;2023-02-02T18:06:21;10.85;;;1.90;;
41446;SDS011;27185;52.040;4.490;2023-02-02T18:09:07;11.38;;;1.80;;
41446;SDS011;27185;52.040;4.490;2023-02-02T18:11:53;9.50;;;2.17;;
41446;SDS011;27185;52.040;4.490;2023-02-02T18:14:39;6.25;;;1.83;;
41446;SDS011;27185;52.040;4.490;2023-02-02T18:17:24;8.32;;;1.52;;
41446;SDS011;27185;52.040;4.490;2023-02-02T18:20:12;10.30;;;2.33;;
41446;SDS011;27185;52.040;4.490;2023-02-02T18:22:59;11.00;;;2.22;;
41446;SDS011;27185;52.040;4.490;2023-02-02T18:25:44;12.18;;;2.22;;
41446;SDS011;27185;52.040;4.490;2023-02-02T18:28:30;12.15;;;2.55;;
41446;SDS011;27185;52.040;4.490;2023-02-02T18:31:17;10.43;;;2.58;;
41446;SDS011;27185;52.040;4.490;2023-02-02T18:34:04;12.77;;;2.15;;
41446;SDS011;27185;52.040;4.490;2023-02-02T18:36:50;8.25;;;1.70;;
41446;SDS011;27185;52.040;4.490;2023-02-02T18:39:35;18.15;;;2.45;;
41446;SDS011;27185;52.040;4.490;2023-02-02T18:42:21;10.73;;;2.08;;
41446;SDS011;27185;52.040;4.490;2023-02-02T18:45:06;10.55;;;2.50;;
41446;SDS011;27185;52.040;4.490;2023-02-02T18:47:52;19.75;;;2.65;;
41446;SDS011;27185;52.040;4.490;2023-02-02T18:50:38;11.55;;;2.10;;
41446;SDS011;27185;52.040;4.490;2023-02-02T18:53:23;10.43;;;2.30;;
41446;SDS011;27185;52.040;4.490;2023-02-02T18:56:10;11.93;;;2.80;;
41446;SDS011;27185;52.040;4.490;2023-02-02T18:58:56;20.93;;;2.83;;